createdAt,value
2022-09-23T00:01:35.009Z,94.30
2022-09-23T00:04:03.448Z,94.40
2022-09-23T00:06:31.412Z,94.40
2022-09-23T00:08:59.624Z,94.40
2022-09-23T00:11:29.879Z,94.40
2022-09-23T00:14:00.298Z,94.40
2022-09-23T00:16:35.453Z,94.30
2022-09-23T00:19:04.934Z,94.30
2022-09-23T00:21:33.012Z,94.20
2022-09-23T00:24:01.275Z,94.40
2022-09-23T00:26:29.394Z,94.40
2022-09-23T00:28:57.720Z,94.40
2022-09-23T00:31:26.503Z,94.40
2022-09-23T00:33:57.033Z,94.50
2022-09-23T00:36:25.696Z,94.50
2022-09-23T00:38:54.916Z,94.50
2022-09-23T00:41:23.589Z,94.60
2022-09-23T00:43:55.035Z,94.70
2022-09-23T00:46:40.203Z,94.70
2022-09-23T00:49:21.578Z,94.80
2022-09-23T00:51:55.010Z,94.60
2022-09-23T00:54:26.279Z,94.70
2022-09-23T00:56:55.423Z,94.70
2022-09-23T00:59:24.787Z,94.70
2022-09-23T01:01:58.300Z,94.70
2022-09-23T01:04:30.291Z,94.70
2022-09-23T01:06:58.530Z,94.70
2022-09-23T01:09:27.133Z,94.70
2022-09-23T01:12:25.017Z,94.80
2022-09-23T01:15:33.848Z,94.80
2022-09-23T01:18:13.825Z,94.80
2022-09-23T01:21:03.921Z,94.80
2022-09-23T01:24:02.939Z,94.90
2022-09-23T01:26:49.602Z,94.90
2022-09-23T01:29:28.849Z,94.90
2022-09-23T01:32:08.966Z,94.80
2022-09-23T01:34:59.339Z,94.80
2022-09-23T01:37:36.515Z,94.80
2022-09-23T01:40:15.164Z,94.80
2022-09-23T01:42:48.921Z,94.80
2022-09-23T01:45:43.904Z,94.70
2022-09-23T01:48:54.956Z,94.70
2022-09-23T01:51:31.500Z,94.70
2022-09-23T01:54:16.469Z,94.60
2022-09-23T01:57:03.494Z,94.60
2022-09-23T01:59:45.955Z,94.70
2022-09-23T02:02:29.566Z,94.50
2022-09-23T02:05:08.441Z,94.60
2022-09-23T02:07:50.910Z,94.60
2022-09-23T02:10:47.512Z,94.80
2022-09-23T02:13:30.737Z,94.90
2022-09-23T02:16:04.633Z,94.90
2022-09-23T02:18:43.166Z,95.00
2022-09-23T02:21:11.781Z,95.00
2022-09-23T02:23:45.912Z,95.00
2022-09-23T02:26:16.727Z,95.00
2022-09-23T02:29:00.720Z,95.00
2022-09-23T02:31:39.132Z,95.10
2022-09-23T02:34:35.610Z,95.20
2022-09-23T02:37:21.926Z,95.20
2022-09-23T02:40:13.314Z,95.40
2022-09-23T02:42:59.748Z,95.40
2022-09-23T02:45:28.058Z,95.20
2022-09-23T02:48:04.840Z,95.20
2022-09-23T02:50:34.582Z,95.40
2022-09-23T02:53:02.836Z,95.40
2022-09-23T02:55:32.905Z,95.60
2022-09-23T02:58:02.884Z,95.70
2022-09-23T03:00:42.568Z,95.80
2022-09-23T03:03:41.010Z,95.90
2022-09-23T03:06:50.795Z,96.10
2022-09-23T03:09:54.567Z,96.20
2022-09-23T03:12:52.093Z,96.40
2022-09-23T03:15:20.253Z,96.50
2022-09-23T03:18:09.929Z,96.40
2022-09-23T03:20:59.607Z,96.40
2022-09-23T03:23:34.990Z,96.60
2022-09-23T03:26:13.580Z,96.40
2022-09-23T03:28:45.781Z,96.40
2022-09-23T03:31:17.920Z,96.30
2022-09-23T03:33:53.314Z,96.30
2022-09-23T03:36:51.972Z,96.30
2022-09-23T03:39:28.039Z,96.20
2022-09-23T03:41:59.794Z,96.20
2022-09-23T03:44:29.734Z,96.00
2022-09-23T03:47:03.411Z,96.00
2022-09-23T03:49:40.103Z,96.10
2022-09-23T03:52:08.830Z,96.30
2022-09-23T03:54:36.735Z,96.30
2022-09-23T03:57:05.138Z,96.50
2022-09-23T03:59:33.606Z,96.60
2022-09-23T04:02:03.080Z,96.70
2022-09-23T04:04:34.588Z,96.80
2022-09-23T04:07:04.063Z,96.90
2022-09-23T04:09:32.156Z,97.00
2022-09-23T04:12:03.970Z,97.10
2022-09-23T04:14:32.027Z,97.10
2022-09-23T04:17:00.020Z,97.00
2022-09-23T04:19:28.868Z,97.10
2022-09-23T04:21:56.901Z,97.10
2022-09-23T04:24:24.984Z,97.20
2022-09-23T04:26:55.147Z,97.30
2022-09-23T04:29:24.855Z,97.30
2022-09-23T04:31:53.899Z,97.30
2022-09-23T04:34:23.726Z,97.40
2022-09-23T04:36:51.694Z,97.50
2022-09-23T04:39:19.705Z,97.50
2022-09-23T04:41:48.175Z,97.50
2022-09-23T04:44:16.353Z,97.60
2022-09-23T04:46:48.465Z,97.60
2022-09-23T04:49:17.439Z,97.70
2022-09-23T04:51:46.145Z,97.70
2022-09-23T04:54:15.617Z,97.80
2022-09-23T04:56:43.729Z,97.80
2022-09-23T04:59:11.868Z,97.60
2022-09-23T05:01:40.336Z,97.70
2022-09-23T05:04:14.151Z,97.70
2022-09-23T05:06:45.568Z,97.80
2022-09-23T05:09:17.692Z,97.80
2022-09-23T05:11:45.949Z,97.90
2022-09-23T05:14:14.291Z,98.00
2022-09-23T05:16:42.445Z,98.40
2022-09-23T05:19:10.777Z,98.70
2022-09-23T05:21:39.473Z,98.90
2022-09-23T05:24:07.484Z,99.10
2022-09-23T05:26:35.625Z,99.10
2022-09-23T05:29:03.609Z,99.30
2022-09-23T05:31:32.235Z,99.50
2022-09-23T05:34:02.861Z,99.40
2022-09-23T05:36:37.562Z,99.10
2022-09-23T05:39:07.639Z,99.00
2022-09-23T05:41:36.932Z,99.00
2022-09-23T05:44:05.675Z,98.90
2022-09-23T05:46:34.082Z,98.80
2022-09-23T05:49:03.779Z,98.70
2022-09-23T05:51:33.361Z,98.70
2022-09-23T05:54:04.700Z,98.60
2022-09-23T05:56:33.847Z,98.50
2022-09-23T05:59:03.067Z,98.60
2022-09-23T06:01:36.961Z,98.60
2022-09-23T06:04:08.686Z,98.70
2022-09-23T06:06:42.215Z,98.80
2022-09-23T06:09:15.058Z,98.80
2022-09-23T06:11:43.292Z,98.90
2022-09-23T06:14:15.376Z,98.90
2022-09-23T06:16:43.563Z,98.90
2022-09-23T06:19:12.140Z,99.00
2022-09-23T06:21:41.901Z,99.10
2022-09-23T06:24:15.066Z,98.90
2022-09-23T06:26:44.597Z,98.50
2022-09-23T06:29:12.961Z,98.20
2022-09-23T06:31:42.438Z,97.40
2022-09-23T06:34:13.711Z,97.20
2022-09-23T06:36:46.726Z,96.70
2022-09-23T06:39:16.090Z,96.40
2022-09-23T06:41:45.676Z,96.00
2022-09-23T06:44:15.889Z,95.40
2022-09-23T06:46:44.476Z,94.80
2022-09-23T06:49:13.689Z,94.50
2022-09-23T06:51:41.966Z,94.10
2022-09-23T06:54:11.389Z,93.70
2022-09-23T06:56:40.179Z,93.70
2022-09-23T06:59:11.769Z,92.80
2022-09-23T07:01:40.038Z,92.60
2022-09-23T07:04:08.966Z,92.00
2022-09-23T07:06:38.161Z,91.40
2022-09-23T07:09:07.536Z,91.30
2022-09-23T07:11:37.448Z,90.60
2022-09-23T07:14:05.760Z,90.20
2022-09-23T07:16:33.997Z,90.40
2022-09-23T07:19:02.994Z,90.50
2022-09-23T07:21:31.187Z,90.70
2022-09-23T07:23:59.976Z,90.70
2022-09-23T07:26:28.021Z,90.20
2022-09-23T07:28:57.534Z,88.40
2022-09-23T07:31:37.440Z,87.30
2022-09-23T07:34:11.974Z,87.20
2022-09-23T07:36:41.257Z,87.60
2022-09-23T07:39:12.896Z,87.10
2022-09-23T07:41:44.937Z,86.00
2022-09-23T07:44:13.631Z,85.00
2022-09-23T07:46:41.604Z,85.70
2022-09-23T07:49:11.069Z,86.30
2022-09-23T07:51:40.617Z,86.80
2022-09-23T07:54:13.868Z,86.80
2022-09-23T07:56:43.060Z,86.30
2022-09-23T07:59:15.770Z,84.40
2022-09-23T08:01:46.747Z,83.70
2022-09-23T08:04:23.973Z,83.40
2022-09-23T08:06:58.090Z,83.20
2022-09-23T08:09:35.976Z,83.60
2022-09-23T08:12:04.302Z,82.60
2022-09-23T08:14:32.651Z,82.10
2022-09-23T08:17:01.035Z,82.20
2022-09-23T08:19:29.460Z,80.80
2022-09-23T08:21:58.451Z,80.60
2022-09-23T08:24:26.915Z,80.30
2022-09-23T08:26:55.574Z,80.60
2022-09-23T08:29:25.326Z,80.30
2022-09-23T08:31:53.660Z,80.70
2022-09-23T08:34:23.125Z,79.30
2022-09-23T08:36:52.774Z,79.10
2022-09-23T08:39:21.693Z,79.10
2022-09-23T08:42:08.583Z,72.00
2022-09-23T08:45:05.095Z,73.10
2022-09-23T08:47:54.546Z,73.30
2022-09-23T08:50:24.880Z,71.30
2022-09-23T08:53:22.842Z,71.80
2022-09-23T08:55:54.248Z,69.30
2022-09-23T08:58:52.304Z,68.00
2022-09-23T09:01:28.873Z,67.40
2022-09-23T09:04:22.983Z,63.50
2022-09-23T09:07:12.454Z,64.90
2022-09-23T09:09:57.924Z,65.20
2022-09-23T09:12:29.944Z,62.70
2022-09-23T09:15:27.780Z,61.40
2022-09-23T09:18:21.138Z,62.90
2022-09-23T09:21:09.677Z,64.10
2022-09-23T09:23:55.590Z,63.90
2022-09-23T09:26:30.119Z,64.30
2022-09-23T09:29:35.750Z,65.10
2022-09-23T09:32:29.439Z,63.20
2022-09-23T09:35:05.938Z,61.50
2022-09-23T09:37:48.330Z,60.10
2022-09-23T09:40:17.610Z,60.20
2022-09-23T09:42:51.002Z,60.30
2022-09-23T09:46:02.899Z,59.80
2022-09-23T09:48:40.538Z,59.00
2022-09-23T09:51:41.954Z,59.00
2022-09-23T09:54:23.859Z,59.70
2022-09-23T09:56:53.050Z,59.20
2022-09-23T09:59:28.079Z,58.40
2022-09-23T10:02:23.832Z,57.70
2022-09-23T10:05:03.662Z,55.70
2022-09-23T10:07:33.557Z,55.70
2022-09-23T10:10:34.469Z,55.20
2022-09-23T10:13:16.458Z,54.80
2022-09-23T10:15:45.672Z,53.40
2022-09-23T10:18:21.029Z,52.30
2022-09-23T10:20:49.622Z,51.50
2022-09-23T10:23:23.553Z,51.60
2022-09-23T10:26:08.546Z,50.80
2022-09-23T10:28:46.716Z,49.60
2022-09-23T10:31:25.121Z,49.60
2022-09-23T10:33:57.669Z,48.00
2022-09-23T10:36:25.832Z,48.60
2022-09-23T10:39:17.757Z,49.40
2022-09-23T10:42:42.298Z,50.60
2022-09-23T10:45:46.232Z,52.60
2022-09-23T10:48:25.783Z,52.20
2022-09-23T10:50:55.276Z,51.20
2022-09-23T10:53:49.887Z,50.70
2022-09-23T10:56:41.881Z,50.20
2022-09-23T10:59:28.468Z,51.20
2022-09-23T11:02:27.024Z,53.00
2022-09-23T11:05:20.313Z,53.30
2022-09-23T11:08:12.656Z,53.60
2022-09-23T11:10:58.390Z,51.90
2022-09-23T11:13:41.363Z,51.40
2022-09-23T11:16:28.283Z,49.70
2022-09-23T11:19:14.480Z,47.50
2022-09-23T11:22:06.001Z,48.40
2022-09-23T11:25:01.055Z,49.00
2022-09-23T11:27:58.326Z,50.80
2022-09-23T11:30:39.921Z,52.60
2022-09-23T11:33:16.939Z,52.60
2022-09-23T11:35:51.715Z,52.10
2022-09-23T11:38:28.593Z,52.60
2022-09-23T11:41:17.987Z,52.80
2022-09-23T11:43:52.857Z,50.60
2022-09-23T11:46:35.969Z,50.60
2022-09-23T11:49:22.477Z,48.90
2022-09-23T11:52:19.806Z,48.80
2022-09-23T11:54:58.025Z,48.80
2022-09-23T11:57:44.577Z,49.80
2022-09-23T12:00:24.210Z,51.10
2022-09-23T12:03:05.946Z,51.60
2022-09-23T12:05:44.080Z,52.00
2022-09-23T12:08:18.432Z,51.80
2022-09-23T12:11:09.108Z,50.70
2022-09-23T12:13:43.902Z,47.40
2022-09-23T12:16:38.957Z,43.60
2022-09-23T12:19:44.214Z,42.50
2022-09-23T12:22:31.727Z,42.70
2022-09-23T12:25:08.565Z,43.90
2022-09-23T12:27:50.140Z,45.60
2022-09-23T12:30:27.168Z,48.00
2022-09-23T12:33:24.957Z,49.20
2022-09-23T12:36:05.507Z,50.00
2022-09-23T12:38:49.736Z,51.40
2022-09-23T12:41:38.298Z,54.40
2022-09-23T12:44:12.939Z,55.30
2022-09-23T12:46:42.693Z,55.90
2022-09-23T12:49:37.887Z,57.00
2022-09-23T12:52:17.718Z,57.10
2022-09-23T12:54:48.162Z,54.30
2022-09-23T12:57:34.619Z,53.30
2022-09-23T13:00:29.850Z,52.00
2022-09-23T13:03:19.929Z,49.90
2022-09-23T13:06:20.650Z,51.10
2022-09-23T13:08:50.373Z,53.50
2022-09-23T13:11:31.888Z,55.80
2022-09-23T13:14:27.354Z,57.00
2022-09-23T13:17:01.179Z,57.90
2022-09-23T13:19:29.145Z,57.10
2022-09-23T13:22:09.429Z,56.40
2022-09-23T13:24:46.080Z,54.60
2022-09-23T13:27:24.932Z,54.70
2022-09-23T13:30:00.003Z,56.10
2022-09-23T13:32:33.065Z,55.60
2022-09-23T13:35:16.270Z,54.90
2022-09-23T13:37:48.609Z,54.30
2022-09-23T13:40:24.413Z,54.20
2022-09-23T13:42:55.425Z,55.10
2022-09-23T13:45:25.183Z,56.70
2022-09-23T13:48:00.068Z,57.30
2022-09-23T13:50:34.145Z,57.00
2022-09-23T13:53:12.455Z,55.60
2022-09-23T13:55:41.854Z,54.60
2022-09-23T13:58:20.985Z,53.60
2022-09-23T14:00:50.460Z,52.00
2022-09-23T14:03:30.241Z,50.00
2022-09-23T14:06:05.079Z,48.30
2022-09-23T14:08:33.696Z,48.90
2022-09-23T14:11:02.206Z,51.30
2022-09-23T14:13:32.822Z,53.40
2022-09-23T14:16:04.618Z,54.90
2022-09-23T14:18:45.186Z,53.80
2022-09-23T14:21:37.530Z,52.50
2022-09-23T14:24:14.398Z,51.00
2022-09-23T14:26:52.754Z,49.10
2022-09-23T14:29:32.250Z,46.70
2022-09-23T14:32:04.938Z,45.20
2022-09-23T14:35:11.582Z,43.60
2022-09-23T14:37:57.744Z,43.20
2022-09-23T14:41:16.458Z,42.80
2022-09-23T14:44:04.004Z,42.50
2022-09-23T14:46:35.297Z,41.70
2022-09-23T14:49:06.308Z,41.80
2022-09-23T14:51:52.371Z,41.90
2022-09-23T14:54:44.556Z,41.40
2022-09-23T14:57:23.753Z,41.00
2022-09-23T14:59:59.616Z,41.20
2022-09-23T15:02:46.199Z,42.10
2022-09-23T15:05:23.896Z,42.30
2022-09-23T15:07:56.356Z,43.40
2022-09-23T15:10:31.703Z,44.10
2022-09-23T15:13:13.485Z,45.90
2022-09-23T15:15:43.848Z,46.80
2022-09-23T15:18:36.283Z,47.80
2022-09-23T15:21:12.183Z,49.60
2022-09-23T15:23:55.412Z,50.80
2022-09-23T15:26:48.883Z,51.40
2022-09-23T15:29:20.145Z,51.70
2022-09-23T15:31:48.880Z,52.60
2022-09-23T15:34:17.609Z,53.00
2022-09-23T15:36:46.326Z,53.30
2022-09-23T15:39:17.922Z,53.50
2022-09-23T15:41:48.828Z,54.00
2022-09-23T15:44:20.965Z,53.80
2022-09-23T15:46:52.298Z,53.60
2022-09-23T15:49:40.663Z,52.60
2022-09-23T15:52:12.730Z,51.40
2022-09-23T15:54:40.777Z,49.80
2022-09-23T15:57:08.690Z,49.10
2022-09-23T15:59:38.767Z,48.20
2022-09-23T16:02:24.010Z,47.60
2022-09-23T16:04:53.859Z,47.40
2022-09-23T16:07:25.664Z,47.80
2022-09-23T16:09:55.142Z,48.80
2022-09-23T16:12:23.873Z,50.10
2022-09-23T16:14:52.101Z,51.50
2022-09-23T16:17:20.592Z,53.30
2022-09-23T16:19:50.062Z,55.20
2022-09-23T16:22:19.419Z,57.10
2022-09-23T16:24:47.859Z,58.20
2022-09-23T16:27:19.725Z,59.20
2022-09-23T16:29:47.904Z,60.20
2022-09-23T16:32:20.165Z,60.90
2022-09-23T16:34:52.462Z,61.90
2022-09-23T16:37:22.901Z,62.50
2022-09-23T16:39:51.858Z,63.00
2022-09-23T16:42:19.780Z,63.60
2022-09-23T16:44:47.935Z,64.50
2022-09-23T16:47:16.503Z,64.60
2022-09-23T16:49:44.625Z,65.20
2022-09-23T16:52:15.761Z,65.70
2022-09-23T16:54:44.487Z,66.10
2022-09-23T16:57:13.707Z,66.70
2022-09-23T17:00:00.581Z,67.10
2022-09-23T17:02:48.134Z,68.00
2022-09-23T17:05:16.898Z,67.70
2022-09-23T17:07:44.717Z,68.10
2022-09-23T17:10:13.142Z,68.30
2022-09-23T17:12:41.445Z,68.60
2022-09-23T17:15:12.598Z,69.00
2022-09-23T17:17:40.959Z,69.30
2022-09-23T17:20:10.609Z,69.40
2022-09-23T17:22:42.548Z,69.70
2022-09-23T17:25:11.977Z,69.90
2022-09-23T17:27:41.180Z,70.30
2022-09-23T17:30:11.573Z,70.50
2022-09-23T17:32:42.781Z,70.90
2022-09-23T17:35:12.522Z,71.10
2022-09-23T17:37:41.719Z,71.40
2022-09-23T17:40:11.684Z,71.30
2022-09-23T17:42:45.160Z,71.60
2022-09-23T17:45:16.485Z,71.80
2022-09-23T17:47:52.761Z,71.90
2022-09-23T17:50:23.523Z,72.10
2022-09-23T17:52:54.186Z,72.40
2022-09-23T17:55:25.205Z,72.50
2022-09-23T17:57:53.410Z,72.60
2022-09-23T18:00:21.560Z,72.80
2022-09-23T18:02:52.723Z,73.20
2022-09-23T18:05:20.919Z,73.50
2022-09-23T18:07:49.228Z,73.60
2022-09-23T18:10:19.487Z,73.60
2022-09-23T18:12:51.361Z,73.80
2022-09-23T18:15:20.262Z,73.80
2022-09-23T18:17:49.417Z,74.00
2022-09-23T18:20:19.673Z,74.00
2022-09-23T18:22:48.776Z,74.20
2022-09-23T18:25:37.563Z,74.50
2022-09-23T18:28:06.724Z,74.40
2022-09-23T18:30:36.255Z,74.70
2022-09-23T18:33:06.147Z,74.50
2022-09-23T18:35:40.088Z,74.90
2022-09-23T18:38:09.752Z,75.10
2022-09-23T18:40:39.632Z,75.30
2022-09-23T18:43:10.066Z,75.50
2022-09-23T18:45:44.502Z,75.80
2022-09-23T18:48:32.514Z,76.00
2022-09-23T18:51:08.656Z,75.90
2022-09-23T18:53:39.062Z,76.30
2022-09-23T18:56:12.632Z,75.90
2022-09-23T18:58:49.723Z,76.00
2022-09-23T19:01:31.198Z,76.50
2022-09-23T19:04:04.783Z,76.60
2022-09-23T19:06:36.592Z,76.60
2022-09-23T19:09:12.939Z,77.40
2022-09-23T19:11:43.363Z,77.00
2022-09-23T19:14:15.753Z,77.30
2022-09-23T19:16:46.043Z,77.50
2022-09-23T19:19:15.794Z,77.40
2022-09-23T19:21:48.694Z,77.50
2022-09-23T19:24:23.373Z,77.70
2022-09-23T19:26:52.921Z,77.70
2022-09-23T19:29:23.842Z,77.70
2022-09-23T19:31:57.652Z,77.80
2022-09-23T19:34:34.409Z,78.30
2022-09-23T19:37:04.920Z,78.50
2022-09-23T19:39:38.784Z,78.40
2022-09-23T19:42:12.131Z,78.40
2022-09-23T19:44:51.217Z,77.30
2022-09-23T19:47:24.670Z,76.00
2022-09-23T19:49:55.408Z,75.00
2022-09-23T19:52:26.546Z,74.90
2022-09-23T19:55:05.877Z,75.40
2022-09-23T19:57:41.171Z,75.40
2022-09-23T20:00:24.687Z,76.20
2022-09-23T20:02:58.672Z,77.00
2022-09-23T20:05:30.582Z,77.70
2022-09-23T20:08:03.423Z,78.00
2022-09-23T20:10:42.606Z,78.20
2022-09-23T20:13:23.248Z,78.30
2022-09-23T20:15:55.201Z,78.40
2022-09-23T20:18:31.141Z,78.80
2022-09-23T20:21:00.269Z,79.20
2022-09-23T20:23:30.344Z,79.10
2022-09-23T20:26:21.937Z,79.30
2022-09-23T20:28:54.756Z,78.70
2022-09-23T20:31:25.618Z,77.90
2022-09-23T20:34:11.647Z,77.70
2022-09-23T20:36:42.834Z,77.30
2022-09-23T20:39:13.996Z,77.70
2022-09-23T20:41:42.191Z,77.40
2022-09-23T20:44:16.646Z,77.10
2022-09-23T20:46:48.761Z,76.70
2022-09-23T20:49:18.181Z,76.40
2022-09-23T20:51:48.446Z,75.80
2022-09-23T20:54:19.477Z,75.20
2022-09-23T20:56:48.114Z,74.80
2022-09-23T20:59:18.263Z,74.60
2022-09-23T21:01:48.115Z,74.40
2022-09-23T21:04:18.176Z,74.50
2022-09-23T21:06:46.383Z,74.80
2022-09-23T21:09:15.833Z,75.00
2022-09-23T21:11:48.069Z,74.90
2022-09-23T21:14:20.475Z,74.90
2022-09-23T21:16:52.005Z,74.60
2022-09-23T21:19:20.070Z,74.40
2022-09-23T21:21:47.873Z,74.20
2022-09-23T21:24:51.086Z,73.90
2022-09-23T21:27:04.327Z,74.00
2022-09-23T21:29:35.065Z,73.90
2022-09-23T21:32:03.299Z,73.60
2022-09-23T21:34:32.823Z,73.30
2022-09-23T21:37:00.819Z,73.10
2022-09-23T21:39:28.981Z,73.50
2022-09-23T21:41:57.359Z,72.60
2022-09-23T21:44:25.926Z,72.30
2022-09-23T21:46:54.803Z,72.20
2022-09-23T21:49:22.699Z,72.10
2022-09-23T21:51:59.725Z,72.30
2022-09-23T21:54:27.603Z,72.20
2022-09-23T21:56:55.466Z,72.10
2022-09-23T21:59:23.659Z,72.10
2022-09-23T22:01:54.237Z,72.00
2022-09-23T22:04:22.435Z,72.00
2022-09-23T22:06:50.537Z,71.90
2022-09-23T22:09:20.777Z,71.90
2022-09-23T22:12:07.984Z,72.10
2022-09-23T22:14:37.338Z,72.40
2022-09-23T22:17:07.572Z,71.70
2022-09-23T22:19:44.340Z,71.90
2022-09-23T22:22:18.087Z,71.80
2022-09-23T22:24:47.565Z,71.90
2022-09-23T22:27:20.757Z,71.60
2022-09-23T22:30:06.902Z,71.80
2022-09-23T22:32:40.981Z,71.90
2022-09-23T22:35:17.340Z,72.10
2022-09-23T22:37:46.535Z,72.30
2022-09-23T22:40:15.792Z,72.50
2022-09-23T22:42:44.365Z,72.60
2022-09-23T22:45:13.226Z,72.70
2022-09-23T22:47:46.117Z,72.10
2022-09-23T22:50:15.302Z,71.70
2022-09-23T22:52:43.819Z,71.90
2022-09-23T22:55:12.737Z,72.00
2022-09-23T22:57:41.272Z,71.60
2022-09-23T23:00:10.433Z,71.20
2022-09-23T23:02:38.240Z,71.20
2022-09-23T23:05:06.950Z,71.30
2022-09-23T23:07:35.392Z,70.80
2022-09-23T23:10:05.069Z,70.40
2022-09-23T23:12:34.261Z,70.00
2022-09-23T23:15:03.501Z,70.30
2022-09-23T23:17:31.665Z,70.60
2022-09-23T23:20:00.149Z,70.60
2022-09-23T23:22:29.006Z,70.40
2022-09-23T23:24:57.135Z,70.30
2022-09-23T23:27:25.468Z,70.30
2022-09-23T23:29:53.756Z,70.50
2022-09-23T23:32:21.824Z,70.80
2022-09-23T23:34:49.783Z,71.00
2022-09-23T23:37:20.766Z,71.00
2022-09-23T23:39:49.210Z,71.10
2022-09-23T23:42:17.459Z,71.40
2022-09-23T23:44:45.516Z,71.70
2022-09-23T23:47:13.601Z,71.80
2022-09-23T23:49:41.848Z,72.00
2022-09-23T23:52:09.872Z,72.40
2022-09-23T23:54:38.281Z,72.50
2022-09-23T23:57:06.276Z,72.70
2022-09-23T23:59:35.086Z,73.10
